Time;durP1;ratioP1;P1;durP2;ratioP2;P2;SDS_P1;SDS_P2;PMS_P1;PMS_P2;Temp;Humidity;BMP_temperature;BMP_pressure;BME280_temperature;BME280_humidity;BME280_pressure;Samples;Min_cycle;Max_cycle;Signal;HPM_P1;HPM_P2
2024/01/14 00:01:46;;;;;;;;;;;;;;;16.74;32.54;100832.41;5078792;28;1063;-52
2024/01/14 00:04:12;;;;;;;;;;;;;;;15.74;34.55;100834.84;5079155;28;1098;-49
2024/01/14 00:06:37;;;;;;;;;;;;;;;17.24;32.29;100835.00;5078292;28;1102;-50
2024/01/14 00:09:03;;;;;;;;;;;;;;;16.63;32.86;100827.91;5069569;28;1031;-51
2024/01/14 00:11:29;;;;;;;;;;;;;;;15.62;34.45;100815.31;5074163;28;1242;-53
2024/01/14 00:13:54;;;;;;;;;;;;;;;16.57;33.63;100826.50;5069480;28;1980;-52
2024/01/14 00:16:20;;;;;;;;;;;;;;;16.68;32.60;100825.75;5061559;28;1071;-52
2024/01/14 00:18:45;;;;;;;;;;;;;;;15.67;34.71;100817.63;5073447;28;1094;-49
2024/01/14 00:21:11;;;;;;;;;;;;;;;16.96;32.72;100830.84;5060020;28;1135;-50
2024/01/14 00:23:36;;;;;;;;;;;;;;;18.16;30.53;100816.59;5069964;28;1107;-52
2024/01/14 00:26:02;;;;;;;;;;;;;;;16.36;33.19;100820.94;5073826;28;1047;-52
2024/01/14 00:28:28;;;;;;;;;;;;;;;15.66;34.47;100818.59;5078278;28;1183;-49
2024/01/14 00:30:53;;;;;;;;;;;;;;;16.78;32.97;100820.63;5078213;28;1246;-51
2024/01/14 00:33:19;;;;;;;;;;;;;;;16.69;32.62;100810.66;5069579;28;1015;-51
2024/01/14 00:35:45;;;;;;;;;;;;;;;15.71;34.43;100821.78;5059815;28;1905;-50
2024/01/14 00:38:10;;;;;;;;;;;;;;;16.73;33.19;100818.28;5077947;28;1139;-52
2024/01/14 00:40:37;;;;;;;;;;;;;;;16.66;32.83;100819.69;5077877;28;1035;-50
2024/01/14 00:43:03;;;;;;;;;;;;;;;15.63;34.69;100814.34;5075549;28;1153;-50
2024/01/14 00:45:28;;;;;;;;;;;;;;;16.89;32.96;100810.06;5077952;28;1138;-50
2024/01/14 00:47:54;;;;;;;;;;;;;;;16.53;32.83;100820.56;5070292;28;1135;-52
2024/01/14 00:50:20;;;;;;;;;;;;;;;15.61;34.53;100813.63;5072783;28;1257;-52
2024/01/14 00:52:45;;;;;;;;;;;;;;;17.12;32.42;100812.84;5069743;28;1237;-51
2024/01/14 00:55:11;;;;;;;;;;;;;;;16.47;33.36;100813.06;5064088;28;1984;-50
2024/01/14 00:57:37;;;;;;;;;;;;;;;15.65;34.99;100808.94;5069879;28;1163;-50
2024/01/14 01:00:03;;;;;;;;;;;;;;;17.17;32.27;100814.28;5059089;28;1111;-49
2024/01/14 01:02:28;;;;;;;;;;;;;;;17.12;32.11;100820.81;5077917;28;1109;-53
2024/01/14 01:04:54;;;;;;;;;;;;;;;15.90;33.94;100829.31;5063346;28;1150;-54
2024/01/14 01:07:20;;;;;;;;;;;;;;;16.07;34.26;100823.81;5070947;28;1043;-48
2024/01/14 01:09:46;;;;;;;;;;;;;;;17.40;31.74;100820.53;5058904;28;1142;-55
2024/01/14 01:12:11;;;;;;;;;;;;;;;15.94;34.33;100811.38;5077793;28;1079;-52
2024/01/14 01:14:37;;;;;;;;;;;;;;;15.44;34.99;100812.09;5076001;28;1965;-51
2024/01/14 01:17:02;;;;;;;;;;;;;;;17.72;31.38;100811.06;5065035;28;1126;-53
2024/01/14 01:19:28;;;;;;;;;;;;;;;16.20;33.40;100810.56;5068943;28;1199;-52
2024/01/14 01:21:54;;;;;;;;;;;;;;;15.39;34.84;100799.16;5064985;28;1079;-51
2024/01/14 01:24:19;;;;;;;;;;;;;;;16.76;32.92;100796.81;5063836;28;1035;-52
2024/01/14 01:26:45;;;;;;;;;;;;;;;17.08;31.94;100814.00;5077592;28;1154;-51
2024/01/14 01:29:10;;;;;;;;;;;;;;;15.89;33.96;100806.41;5076746;28;1122;-50
2024/01/14 01:31:36;;;;;;;;;;;;;;;15.59;34.96;100804.91;5076872;28;1083;-48
2024/01/14 01:34:01;;;;;;;;;;;;;;;17.71;31.30;100801.41;5076344;28;1963;-51
2024/01/14 01:36:27;;;;;;;;;;;;;;;16.68;32.91;100807.16;5076875;28;1117;-52
2024/01/14 01:38:52;;;;;;;;;;;;;;;15.71;34.69;100803.22;5063888;28;1158;-52
2024/01/14 01:41:19;;;;;;;;;;;;;;;15.27;35.26;100789.34;5069889;28;1133;-50
2024/01/14 01:43:44;;;;;;;;;;;;;;;17.15;32.50;100779.84;5064100;28;1175;-49
2024/01/14 01:46:10;;;;;;;;;;;;;;;17.68;31.12;100777.72;5076794;28;1118;-48
2024/01/14 01:48:36;;;;;;;;;;;;;;;16.12;33.85;100772.13;5077046;28;1080;-53
2024/01/14 01:51:01;;;;;;;;;;;;;;;15.50;35.04;100776.34;5069918;28;1071;-52
2024/01/14 01:53:27;;;;;;;;;;;;;;;15.21;35.77;100766.78;5052986;28;1048;-52
2024/01/14 01:55:52;;;;;;;;;;;;;;;17.33;32.00;100772.28;5064346;28;1988;-49
2024/01/14 01:58:18;;;;;;;;;;;;;;;16.10;33.87;100760.78;5076695;28;1071;-52
2024/01/14 02:00:44;;;;;;;;;;;;;;;15.35;35.38;100765.00;5064204;28;1059;-51
2024/01/14 02:03:10;;;;;;;;;;;;;;;17.01;32.62;100764.94;5076378;28;1091;-51
2024/01/14 02:05:36;;;;;;;;;;;;;;;16.56;32.64;100753.13;5058784;28;1020;-52
2024/01/14 02:08:02;;;;;;;;;;;;;;;15.57;34.67;100755.56;5058182;28;1088;-52
2024/01/14 02:10:27;;;;;;;;;;;;;;;17.50;31.77;100741.75;5056594;28;1051;-49
2024/01/14 02:12:53;;;;;;;;;;;;;;;16.37;33.19;100738.53;5070061;28;1087;-53
2024/01/14 02:15:18;;;;;;;;;;;;;;;15.62;34.97;100722.50;5038944;28;1918;-51
2024/01/14 02:17:44;;;;;;;;;;;;;;;15.62;34.86;100717.19;5069145;28;1067;-52
2024/01/14 02:20:10;;;;;;;;;;;;;;;17.70;31.35;100709.28;5073966;28;1080;-52
2024/01/14 02:22:37;;;;;;;;;;;;;;;16.49;32.94;100712.91;5076535;28;1047;-50
2024/01/14 02:25:03;;;;;;;;;;;;;;;15.71;34.49;100713.06;5058483;28;1175;-49
2024/01/14 02:27:29;;;;;;;;;;;;;;;16.75;32.89;100703.94;5075443;28;1139;-50
2024/01/14 02:29:55;;;;;;;;;;;;;;;17.88;30.84;100696.31;5076766;28;1098;-52
2024/01/14 02:32:20;;;;;;;;;;;;;;;16.05;33.91;100691.25;5057410;28;1174;-53
2024/01/14 02:34:47;;;;;;;;;;;;;;;16.02;34.42;100697.63;5075947;28;1917;-50
2024/01/14 02:37:13;;;;;;;;;;;;;;;17.69;31.36;100703.09;5062125;28;1047;-49
2024/01/14 02:39:38;;;;;;;;;;;;;;;16.11;33.58;100708.56;5076585;28;1134;-52
2024/01/14 02:42:04;;;;;;;;;;;;;;;15.47;34.97;100702.31;5075464;28;1063;-53
2024/01/14 02:44:30;;;;;;;;;;;;;;;16.86;32.84;100696.03;5066154;28;881;-50
2024/01/14 02:46:56;;;;;;;;;;;;;;;17.49;31.40;100688.69;5075272;28;1207;-48
2024/01/14 02:49:21;;;;;;;;;;;;;;;15.98;33.92;100692.63;5058151;28;1099;-50
2024/01/14 02:51:47;;;;;;;;;;;;;;;15.90;34.69;100688.72;5062916;28;1051;-51
2024/01/14 02:54:13;;;;;;;;;;;;;;;17.18;31.81;100678.63;5076178;28;1981;-47
2024/01/14 02:56:38;;;;;;;;;;;;;;;15.87;34.39;100693.38;5075494;28;1071;-50
2024/01/14 02:59:04;;;;;;;;;;;;;;;15.35;35.36;100704.03;5075757;28;1147;-51
2024/01/14 03:01:30;;;;;;;;;;;;;;;17.18;32.44;100696.38;5076237;28;1123;-51
2024/01/14 03:03:55;;;;;;;;;;;;;;;16.67;32.66;100698.34;5075601;28;1042;-49
2024/01/14 03:06:21;;;;;;;;;;;;;;;15.63;34.74;100696.81;5075466;28;1272;-51
2024/01/14 03:08:46;;;;;;;;;;;;;;;17.26;32.25;100701.97;5075374;28;959;-50
2024/01/14 03:11:12;;;;;;;;;;;;;;;18.18;30.68;100697.53;5075134;28;1083;-50
2024/01/14 03:13:38;;;;;;;;;;;;;;;16.39;33.59;100701.25;5062680;28;1139;-47
2024/01/14 03:16:03;;;;;;;;;;;;;;;15.63;34.48;100704.78;5062444;28;1926;-51
2024/01/14 03:18:29;;;;;;;;;;;;;;;16.06;34.21;100703.59;5076088;28;1051;-53
2024/01/14 03:20:54;;;;;;;;;;;;;;;18.01;30.97;100700.66;5073350;28;1162;-52
2024/01/14 03:23:20;;;;;;;;;;;;;;;16.60;33.25;100690.84;5069900;28;1031;-48
2024/01/14 03:25:46;;;;;;;;;;;;;;;15.82;34.38;100696.38;5055818;28;1111;-49
2024/01/14 03:28:11;;;;;;;;;;;;;;;15.49;35.01;100692.47;5061228;28;1044;-51
2024/01/14 03:30:37;;;;;;;;;;;;;;;17.70;31.50;100683.50;5067324;28;1194;-48
2024/01/14 03:33:02;;;;;;;;;;;;;;;16.89;32.40;100682.50;5070532;28;1075;-52
2024/01/14 03:35:29;;;;;;;;;;;;;;;15.92;34.29;100683.28;5079128;28;1917;-52
2024/01/14 03:37:54;;;;;;;;;;;;;;;17.19;32.54;100675.00;5078994;28;1115;-50
2024/01/14 03:40:20;;;;;;;;;;;;;;;16.33;33.36;100683.13;5067085;28;1055;-54
2024/01/14 03:42:46;;;;;;;;;;;;;;;15.72;34.84;100671.44;5078562;28;1132;-52
2024/01/14 03:45:11;;;;;;;;;;;;;;;17.91;31.30;100673.94;5079026;28;1497;-50
2024/01/14 03:47:37;;;;;;;;;;;;;;;16.44;33.38;100667.25;5060181;28;1170;-52
2024/01/14 03:50:02;;;;;;;;;;;;;;;15.91;34.61;100663.88;5059344;28;1039;-48
2024/01/14 03:52:28;;;;;;;;;;;;;;;17.85;30.97;100665.47;5054620;28;1100;-51
2024/01/14 03:54:54;;;;;;;;;;;;;;;16.14;33.67;100673.81;5071536;28;1935;-52
2024/01/14 03:57:20;;;;;;;;;;;;;;;15.59;34.85;100672.31;5065802;28;1177;-50
2024/01/14 03:59:46;;;;;;;;;;;;;;;15.26;35.33;100671.06;5061069;28;1110;-52
2024/01/14 04:02:11;;;;;;;;;;;;;;;17.38;32.06;100663.78;5079062;28;1090;-52
2024/01/14 04:04:37;;;;;;;;;;;;;;;16.97;32.12;100662.47;5066473;28;1027;-51
2024/01/14 04:07:02;;;;;;;;;;;;;;;15.87;34.37;100658.91;5077971;28;1111;-49
2024/01/14 04:09:28;;;;;;;;;;;;;;;15.52;35.32;100658.66;5077857;28;856;-51
2024/01/14 04:11:54;;;;;;;;;;;;;;;17.63;31.71;100651.22;5065092;28;1198;-48
2024/01/14 04:14:19;;;;;;;;;;;;;;;16.35;33.67;100641.38;5078966;28;1973;-48
2024/01/14 04:16:45;;;;;;;;;;;;;;;15.63;34.74;100651.75;5073309;28;1146;-53
2024/01/14 04:19:11;;;;;;;;;;;;;;;15.29;35.53;100645.19;5071093;28;1118;-49
2024/01/14 04:21:36;;;;;;;;;;;;;;;17.35;32.22;100642.75;5070334;28;1020;-47
2024/01/14 04:24:02;;;;;;;;;;;;;;;17.46;31.51;100641.06;5078724;28;1126;-48
2024/01/14 04:26:28;;;;;;;;;;;;;;;15.96;34.12;100637.03;5059750;28;979;-51
2024/01/14 04:28:53;;;;;;;;;;;;;;;15.36;35.64;100629.72;5070880;28;1087;-49
2024/01/14 04:31:19;;;;;;;;;;;;;;;17.04;32.78;100629.16;5060258;28;1059;-47
2024/01/14 04:33:45;;;;;;;;;;;;;;;16.38;33.53;100627.88;5076481;28;1921;-48
2024/01/14 04:36:10;;;;;;;;;;;;;;;15.55;35.25;100629.25;5078441;28;1071;-49
2024/01/14 04:38:36;;;;;;;;;;;;;;;16.12;34.34;100623.53;5078327;28;1158;-50
2024/01/14 04:41:02;;;;;;;;;;;;;;;17.83;31.18;100619.50;5076605;28;1048;-47
2024/01/14 04:43:28;;;;;;;;;;;;;;;15.90;34.54;100624.19;5078601;28;1135;-47
2024/01/14 04:45:53;;;;;;;;;;;;;;;15.39;35.12;100626.00;5068414;28;1253;-49
2024/01/14 04:48:19;;;;;;;;;;;;;;;15.13;36.02;100624.19;5077957;28;1095;-49
2024/01/14 04:50:44;;;;;;;;;;;;;;;16.92;32.93;100630.09;5077876;28;1131;-48
2024/01/14 04:53:11;;;;;;;;;;;;;;;17.01;32.39;100621.41;5078320;28;1074;-46
2024/01/14 04:55:37;;;;;;;;;;;;;;;15.71;34.91;100630.84;5059639;28;1897;-51
2024/01/14 04:58:02;;;;;;;;;;;;;;;15.68;35.40;100628.41;5051405;28;849;-51
2024/01/14 05:00:28;;;;;;;;;;;;;;;17.76;31.46;100639.59;5047387;28;1230;-51
2024/01/14 05:02:54;;;;;;;;;;;;;;;16.18;34.06;100640.81;5077734;28;1155;-48
2024/01/14 05:05:19;;;;;;;;;;;;;;;15.77;35.00;100638.34;5077836;28;1035;-47
2024/01/14 05:07:45;;;;;;;;;;;;;;;17.58;31.58;100632.09;5066682;28;1011;-48
2024/01/14 05:10:11;;;;;;;;;;;;;;;15.89;34.54;100626.00;5070486;28;1074;-47
2024/01/14 05:12:36;;;;;;;;;;;;;;;15.39;35.47;100632.16;5068845;28;1039;-48
2024/01/14 05:15:02;;;;;;;;;;;;;;;17.62;31.77;100630.91;5073049;28;1897;-50
2024/01/14 05:17:28;;;;;;;;;;;;;;;17.46;31.71;100622.44;5068433;28;1083;-47
2024/01/14 05:19:54;;;;;;;;;;;;;;;16.14;34.05;100612.78;5077588;28;1103;-50
2024/01/14 05:22:19;;;;;;;;;;;;;;;17.38;32.06;100610.59;5076921;28;977;-48
2024/01/14 05:24:45;;;;;;;;;;;;;;;16.83;32.60;100615.72;5076917;28;1011;-50
2024/01/14 05:27:11;;;;;;;;;;;;;;;16.36;33.45;100622.69;5077219;28;1079;-48
2024/01/14 05:29:40;;;;;;;;;;;;;;;16.07;34.13;100620.34;5063897;28;1046;-49
2024/01/14 05:32:07;;;;;;;;;;;;;;;15.90;34.23;100616.22;5076826;28;1042;-48
2024/01/14 05:34:32;;;;;;;;;;;;;;;17.46;31.70;100614.47;5077098;28;1910;-49
2024/01/14 05:36:59;;;;;;;;;;;;;;;16.80;32.79;100611.47;5077120;28;1059;-50
2024/01/14 05:39:25;;;;;;;;;;;;;;;16.14;33.87;100605.69;5045837;28;1080;-45
2024/01/14 05:41:51;;;;;;;;;;;;;;;15.89;34.61;100607.44;5069568;28;1237;-47
2024/01/14 05:44:16;;;;;;;;;;;;;;;17.36;31.91;100609.88;5072032;28;1238;-50
2024/01/14 05:46:42;;;;;;;;;;;;;;;17.16;32.05;100600.81;5076573;28;976;-47
2024/01/14 05:49:07;;;;;;;;;;;;;;;16.33;33.48;100590.19;5077217;28;1532;-48
2024/01/14 05:51:33;;;;;;;;;;;;;;;16.79;32.97;100595.63;5076987;28;1171;-46
2024/01/14 05:53:58;;;;;;;;;;;;;;;17.69;31.18;100593.16;5075138;28;1981;-49
2024/01/14 05:56:25;;;;;;;;;;;;;;;16.61;32.73;100596.94;5064947;28;1103;-48
2024/01/14 05:58:50;;;;;;;;;;;;;;;16.04;33.94;100588.75;5074003;28;872;-47
2024/01/14 06:01:16;;;;;;;;;;;;;;;16.75;33.10;100592.38;5076988;28;1245;-45
2024/01/14 06:03:41;;;;;;;;;;;;;;;17.70;31.11;100592.22;5075693;28;1055;-48
2024/01/14 06:06:08;;;;;;;;;;;;;;;16.60;32.79;100579.28;5077044;28;1099;-50
2024/01/14 06:08:34;;;;;;;;;;;;;;;16.02;34.22;100580.03;5076784;28;1118;-48
2024/01/14 06:11:01;;;;;;;;;;;;;;;17.19;32.37;100581.97;5067228;28;949;-44
2024/01/14 06:13:27;;;;;;;;;;;;;;;17.22;32.00;100581.72;5076117;28;1152;-49
2024/01/14 06:15:52;;;;;;;;;;;;;;;16.35;33.47;100575.00;5077267;28;1909;-48
2024/01/14 06:18:18;;;;;;;;;;;;;;;16.03;33.95;100581.75;5076333;28;1070;-47
2024/01/14 06:20:44;;;;;;;;;;;;;;;17.48;31.73;100585.94;5076686;28;1074;-47
2024/01/14 06:23:09;;;;;;;;;;;;;;;17.20;31.91;100588.97;5076137;28;925;-46
2024/01/14 06:25:35;;;;;;;;;;;;;;;16.38;33.19;100590.72;5075843;28;1163;-51
2024/01/14 06:28:02;;;;;;;;;;;;;;;16.62;33.46;100588.00;5076314;28;1071;-49
2024/01/14 06:30:28;;;;;;;;;;;;;;;17.81;31.16;100586.00;5076356;28;1059;-49
2024/01/14 06:32:56;;;;;;;;;;;;;;;16.80;32.52;100581.41;5076189;28;1259;-50
2024/01/14 06:35:22;;;;;;;;;;;;;;;16.15;34.08;100569.34;5068662;28;1995;-48
2024/01/14 06:37:47;;;;;;;;;;;;;;;16.88;32.90;100565.72;5058373;28;1198;-48
2024/01/14 06:40:13;;;;;;;;;;;;;;;17.95;30.98;100564.44;5075937;28;1213;-45
2024/01/14 06:42:38;;;;;;;;;;;;;;;16.77;32.55;100566.53;5076301;28;1059;-52
2024/01/14 06:45:04;;;;;;;;;;;;;;;16.21;33.47;100562.75;5075918;28;1126;-46
2024/01/14 06:47:30;;;;;;;;;;;;;;;17.02;32.36;100565.50;5074855;28;1017;-47
2024/01/14 06:49:55;;;;;;;;;;;;;;;17.62;31.48;100568.88;5076359;28;1126;-46
2024/01/14 06:52:22;;;;;;;;;;;;;;;16.59;33.09;100567.00;5075581;28;1038;-47
2024/01/14 06:54:49;;;;;;;;;;;;;;;16.57;33.32;100552.97;5075449;28;1910;-50
2024/01/14 06:57:14;;;;;;;;;;;;;;;17.84;31.06;100575.13;5075747;28;1071;-45
2024/01/14 06:59:42;;;;;;;;;;;;;;;16.76;32.86;100571.03;5068240;28;1047;-49
2024/01/14 07:02:08;;;;;;;;;;;;;;;16.23;33.65;100574.94;5075504;28;1206;-48
2024/01/14 07:04:34;;;;;;;;;;;;;;;16.97;32.66;100572.97;5081721;28;1074;-48
2024/01/14 07:06:59;;;;;;;;;;;;;;;17.56;31.44;100572.03;5082818;28;1114;-48
2024/01/14 07:09:25;;;;;;;;;;;;;;;16.55;33.09;100568.16;5063644;28;1111;-48
2024/01/14 07:11:50;;;;;;;;;;;;;;;16.01;34.01;100563.28;5081930;28;1213;-44
2024/01/14 07:14:16;;;;;;;;;;;;;;;17.11;32.25;100553.34;5082407;28;1901;-45
2024/01/14 07:16:41;;;;;;;;;;;;;;;17.53;31.35;100551.84;5081926;28;1000;-46
2024/01/14 07:19:07;;;;;;;;;;;;;;;16.52;32.97;100556.00;5082516;28;1134;-50
2024/01/14 07:21:33;;;;;;;;;;;;;;;16.02;34.11;100549.06;5080821;28;1019;-46
2024/01/14 07:23:58;;;;;;;;;;;;;;;17.31;32.14;100537.63;5074279;28;1160;-45
2024/01/14 07:26:24;;;;;;;;;;;;;;;17.69;31.14;100542.63;5082516;28;1218;-48
2024/01/14 07:28:52;;;;;;;;;;;;;;;16.63;32.82;100530.44;5082950;28;1151;-51
2024/01/14 07:31:21;;;;;;;;;;;;;;;16.08;33.99;100526.50;5081992;28;1035;-45
2024/01/14 07:33:52;;;;;;;;;;;;;;;16.73;32.92;100526.06;5080480;28;1173;-46
2024/01/14 07:36:17;;;;;;;;;;;;;;;17.92;30.94;100527.44;5081840;28;1000;-45
2024/01/14 07:38:43;;;;;;;;;;;;;;;16.77;32.93;100521.38;5082431;28;1167;-46
2024/01/14 07:41:15;;;;;;;;;;;;;;;16.15;33.97;100524.25;5082312;28;1139;-45
2024/01/14 07:43:41;;;;;;;;;;;;;;;17.16;32.50;100526.38;5082091;28;1133;-47
2024/01/14 07:46:06;;;;;;;;;;;;;;;17.48;31.47;100519.47;5077676;28;1016;-45
2024/01/14 07:48:33;;;;;;;;;;;;;;;16.53;33.11;100512.53;5075930;28;1133;-47
2024/01/14 07:50:59;;;;;;;;;;;;;;;16.11;33.76;100517.50;5075038;28;1082;-43
2024/01/14 07:53:24;;;;;;;;;;;;;;;17.54;31.68;100516.31;5075945;28;1083;-47
2024/01/14 07:55:50;;;;;;;;;;;;;;;17.21;32.07;100512.72;5082264;28;1992;-49
2024/01/14 07:58:16;;;;;;;;;;;;;;;16.35;33.55;100512.13;5077486;28;1156;-45
2024/01/14 08:00:42;;;;;;;;;;;;;;;16.05;33.97;100510.00;5081972;28;1120;-44
2024/01/14 08:03:07;;;;;;;;;;;;;;;17.56;31.79;100509.06;5082029;28;1106;-49
2024/01/14 08:05:35;;;;;;;;;;;;;;;17.03;32.35;100507.88;5082057;28;1131;-48
2024/01/14 08:08:01;;;;;;;;;;;;;;;16.24;33.88;100502.34;5081282;28;1204;-48
2024/01/14 08:10:27;;;;;;;;;;;;;;;17.12;32.38;100508.97;5076637;28;1131;-48
2024/01/14 08:12:53;;;;;;;;;;;;;;;17.45;31.64;100506.41;5076178;28;1194;-48
2024/01/14 08:15:18;;;;;;;;;;;;;;;16.49;33.24;100500.47;5079831;28;1967;-45
2024/01/14 08:17:44;;;;;;;;;;;;;;;16.28;34.10;100506.44;5077901;28;1056;-46
2024/01/14 08:20:10;;;;;;;;;;;;;;;17.72;31.41;100499.78;5078426;28;1055;-42
2024/01/14 08:22:37;;;;;;;;;;;;;;;16.74;32.88;100498.56;5072405;28;1016;-46
2024/01/14 08:25:02;;;;;;;;;;;;;;;16.21;33.59;100493.75;5078656;28;1099;-47
2024/01/14 08:27:30;;;;;;;;;;;;;;;17.20;32.52;100492.44;5078246;28;1075;-49
2024/01/14 08:29:55;;;;;;;;;;;;;;;17.41;31.74;100500.50;5065450;28;1109;-47
2024/01/14 08:32:21;;;;;;;;;;;;;;;16.49;33.35;100491.66;5078346;28;1075;-45
2024/01/14 08:34:47;;;;;;;;;;;;;;;16.10;33.98;100491.94;5071505;28;1979;-48
2024/01/14 08:37:12;;;;;;;;;;;;;;;17.48;31.79;100477.75;5071857;28;1015;-46
2024/01/14 08:39:38;;;;;;;;;;;;;;;16.96;32.46;100488.06;5064717;28;1019;-48
2024/01/14 08:42:03;;;;;;;;;;;;;;;16.20;33.60;100492.91;5078462;28;1681;-47
2024/01/14 08:44:29;;;;;;;;;;;;;;;16.66;33.22;100479.72;5078410;28;1003;-49
2024/01/14 08:46:55;;;;;;;;;;;;;;;17.86;31.09;100485.38;5071332;28;1219;-46
2024/01/14 08:49:21;;;;;;;;;;;;;;;16.81;32.86;100487.47;5077699;28;1337;-47
2024/01/14 08:51:47;;;;;;;;;;;;;;;16.14;34.06;100462.38;5077804;28;1122;-45
2024/01/14 08:54:13;;;;;;;;;;;;;;;17.28;32.18;100462.56;5077983;28;1906;-48
2024/01/14 08:56:39;;;;;;;;;;;;;;;17.39;31.86;100454.56;5077825;28;1140;-44
2024/01/14 08:59:05;;;;;;;;;;;;;;;16.50;33.26;100457.00;5067438;28;1313;-48
2024/01/14 09:01:31;;;;;;;;;;;;;;;16.03;34.49;100462.34;5073732;28;1051;-47
2024/01/14 09:03:56;;;;;;;;;;;;;;;17.30;32.25;100448.16;5076958;28;1091;-45
2024/01/14 09:06:22;;;;;;;;;;;;;;;17.48;31.78;100445.00;5077214;28;1024;-44
2024/01/14 09:08:47;;;;;;;;;;;;;;;16.50;33.34;100437.56;5058374;28;1020;-45
2024/01/14 09:11:13;;;;;;;;;;;;;;;16.02;34.36;100434.09;5069271;28;1039;-45
2024/01/14 09:13:38;;;;;;;;;;;;;;;17.33;32.13;100431.16;5076852;28;1023;-43
2024/01/14 09:16:05;;;;;;;;;;;;;;;17.18;32.18;100428.78;5076808;28;1937;-45
2024/01/14 09:18:31;;;;;;;;;;;;;;;16.36;33.54;100428.03;5076687;28;1074;-45
2024/01/14 09:20:57;;;;;;;;;;;;;;;16.59;33.62;100422.72;5076798;28;1107;-47
2024/01/14 09:23:22;;;;;;;;;;;;;;;17.87;31.37;100425.84;5064795;28;1211;-45
2024/01/14 09:25:48;;;;;;;;;;;;;;;16.81;32.79;100419.25;5076650;28;1130;-47
2024/01/14 09:28:14;;;;;;;;;;;;;;;16.21;33.74;100409.69;5055011;28;952;-48
2024/01/14 09:30:39;;;;;;;;;;;;;;;16.86;32.78;100414.41;5069078;28;1075;-43
2024/01/14 09:33:05;;;;;;;;;;;;;;;17.71;31.47;100411.19;5077139;28;1466;-47
2024/01/14 09:35:31;;;;;;;;;;;;;;;16.63;32.98;100401.13;5065266;28;1918;-46
2024/01/14 09:37:57;;;;;;;;;;;;;;;16.09;34.29;100394.69;5063341;28;1012;-43
2024/01/14 09:40:23;;;;;;;;;;;;;;;17.11;32.66;100399.19;5076687;28;1016;-45
2024/01/14 09:42:50;;;;;;;;;;;;;;;17.65;31.29;100390.38;5076235;28;1130;-45
2024/01/14 09:45:15;;;;;;;;;;;;;;;16.61;32.93;100391.59;5076351;28;1123;-44
2024/01/14 09:47:41;;;;;;;;;;;;;;;16.08;33.80;100371.78;5056734;28;858;-49
2024/01/14 09:50:07;;;;;;;;;;;;;;;16.97;32.67;100368.38;5075772;28;1004;-47
2024/01/14 09:52:32;;;;;;;;;;;;;;;17.78;31.25;100365.44;5058563;28;1114;-45
2024/01/14 09:54:58;;;;;;;;;;;;;;;16.68;32.99;100360.09;5076222;28;2047;-48
2024/01/14 09:57:24;;;;;;;;;;;;;;;16.12;33.90;100357.28;5076209;28;1023;-48
2024/01/14 09:59:53;;;;;;;;;;;;;;;16.97;32.80;100355.06;5065661;28;1066;-48
2024/01/14 10:02:19;;;;;;;;;;;;;;;17.88;30.88;100355.72;5075224;28;1020;-47
2024/01/14 10:04:45;;;;;;;;;;;;;;;16.79;32.53;100341.47;5076267;28;1008;-47
2024/01/14 10:07:10;;;;;;;;;;;;;;;16.25;33.63;100339.47;5076219;28;1135;-46
2024/01/14 10:09:36;;;;;;;;;;;;;;;16.70;33.03;100324.47;5076251;28;1119;-47
2024/01/14 10:12:02;;;;;;;;;;;;;;;17.68;31.23;100334.31;5054438;28;1509;-47
2024/01/14 10:14:28;;;;;;;;;;;;;;;16.64;33.14;100320.50;5057519;28;1971;-48
2024/01/14 10:16:57;;;;;;;;;;;;;;;16.12;33.68;100326.31;5076465;28;754;-48
2024/01/14 10:19:23;;;;;;;;;;;;;;;17.36;31.95;100325.38;5075347;28;1044;-45
2024/01/14 10:21:48;;;;;;;;;;;;;;;17.29;31.80;100318.88;5061345;28;1020;-49
2024/01/14 10:24:14;;;;;;;;;;;;;;;16.48;33.06;100314.72;5054224;28;852;-46
2024/01/14 10:26:40;;;;;;;;;;;;;;;16.38;33.53;100311.97;5075258;28;1174;-45
2024/01/14 10:29:06;;;;;;;;;;;;;;;17.74;30.99;100315.16;5075890;28;1151;-43
2024/01/14 10:31:31;;;;;;;;;;;;;;;16.98;32.19;100308.94;5075308;28;1203;-47
2024/01/14 10:34:03;;;;;;;;;;;;;;;16.33;33.34;100299.03;5075810;28;1974;-48
2024/01/14 10:36:31;;;;;;;;;;;;;;;16.91;32.75;100293.63;5064566;28;1071;-46
2024/01/14 10:38:57;;;;;;;;;;;;;;;17.58;31.23;100290.81;5075052;28;1064;-46
2024/01/14 10:41:23;;;;;;;;;;;;;;;16.62;32.50;100287.06;5076193;28;1062;-44
2024/01/14 10:43:49;;;;;;;;;;;;;;;16.10;33.69;100288.44;5057797;28;1233;-46
2024/01/14 10:46:15;;;;;;;;;;;;;;;17.45;31.42;100288.38;5075251;28;1071;-46
2024/01/14 10:48:41;;;;;;;;;;;;;;;17.23;31.70;100288.31;5071050;28;867;-49
2024/01/14 10:51:06;;;;;;;;;;;;;;;16.47;33.14;100278.50;5075540;28;1126;-44
2024/01/14 10:53:52;;;;;;;;;;;;;;;16.26;33.31;100285.44;5075677;28;1169;-44
2024/01/14 10:56:17;;;;;;;;;;;;;;;17.79;31.09;100284.63;5044866;28;1979;-43
2024/01/14 10:58:43;;;;;;;;;;;;;;;16.84;32.17;100274.69;5075830;28;1074;-47
2024/01/14 11:01:11;;;;;;;;;;;;;;;16.20;33.39;100274.44;5045511;28;1410;-44
2024/01/14 11:03:36;;;;;;;;;;;;;;;16.80;32.72;100268.78;5057506;28;1067;-48
2024/01/14 11:06:02;;;;;;;;;;;;;;;17.69;30.96;100268.63;5057723;28;1083;-50
2024/01/14 11:08:27;;;;;;;;;;;;;;;16.65;32.55;100261.09;5058224;28;1060;-46
2024/01/14 11:10:53;;;;;;;;;;;;;;;16.09;33.80;100254.06;5075696;28;1238;-50
2024/01/14 11:13:34;;;;;;;;;;;;;;;17.42;31.43;100254.03;5069017;28;901;-47
2024/01/14 11:15:59;;;;;;;;;;;;;;;17.04;31.92;100248.28;5045017;28;1902;-52
2024/01/14 11:18:51;;;;;;;;;;;;;;;16.36;33.20;100253.69;5076095;28;1075;-45
2024/01/14 11:21:36;;;;;;;;;;;;;;;17.44;31.54;100254.75;5071948;28;1540;-49
2024/01/14 11:24:02;;;;;;;;;;;;;;;17.21;31.67;100253.06;5069098;28;1051;-48
2024/01/14 11:26:28;;;;;;;;;;;;;;;16.49;33.08;100239.41;5074040;28;1222;-48
2024/01/14 11:28:54;;;;;;;;;;;;;;;16.07;33.70;100230.28;5075023;28;1060;-50
2024/01/14 11:31:20;;;;;;;;;;;;;;;17.50;31.50;100238.28;5075736;28;1067;-47
2024/01/14 11:33:49;;;;;;;;;;;;;;;17.14;31.77;100225.31;5075640;28;1085;-47
2024/01/14 11:36:34;;;;;;;;;;;;;;;16.41;32.97;100221.44;5067977;28;1905;-49
2024/01/14 11:39:03;;;;;;;;;;;;;;;16.73;32.90;100217.97;5062059;28;1278;-47
2024/01/14 11:41:29;;;;;;;;;;;;;;;17.82;30.63;100217.84;5075336;28;1116;-47
2024/01/14 11:44:00;;;;;;;;;;;;;;;16.80;32.51;100225.44;5075402;28;1075;-42
2024/01/14 11:46:34;;;;;;;;;;;;;;;16.22;33.57;100220.28;5071934;28;1159;-44
2024/01/14 11:49:03;;;;;;;;;;;;;;;16.45;33.42;100211.44;5055828;28;1025;-45
2024/01/14 11:51:30;;;;;;;;;;;;;;;17.81;31.06;100217.03;5069751;28;1122;-52
2024/01/14 11:53:56;;;;;;;;;;;;;;;16.81;32.48;100213.84;5070340;28;1179;-47
2024/01/14 11:56:29;;;;;;;;;;;;;;;16.21;33.64;100210.63;5078320;28;1967;-47
2024/01/14 11:58:54;;;;;;;;;;;;;;;17.17;32.23;100218.88;5078428;28;1071;-47
2024/01/14 12:01:20;;;;;;;;;;;;;;;17.62;31.08;100209.78;5051291;28;1400;-47
2024/01/14 12:03:45;;;;;;;;;;;;;;;16.63;32.89;100206.44;5060536;28;1057;-47
2024/01/14 12:06:11;;;;;;;;;;;;;;;16.17;33.46;100203.88;5059527;28;1314;-49
2024/01/14 12:08:36;;;;;;;;;;;;;;;16.71;32.91;100196.03;5078484;28;1031;-44
2024/01/14 12:11:03;;;;;;;;;;;;;;;17.76;30.93;100192.63;5078286;28;1066;-44
2024/01/14 12:13:30;;;;;;;;;;;;;;;16.65;32.86;100191.19;5075273;28;942;-44
2024/01/14 12:15:56;;;;;;;;;;;;;;;16.14;33.42;100190.84;5077885;28;1962;-49
2024/01/14 12:18:21;;;;;;;;;;;;;;;17.07;32.55;100194.88;5078363;28;988;-49
2024/01/14 12:20:48;;;;;;;;;;;;;;;17.50;31.17;100185.94;5077865;28;1091;-48
2024/01/14 12:23:14;;;;;;;;;;;;;;;16.52;32.80;100186.91;5077487;28;1031;-45
2024/01/14 12:25:40;;;;;;;;;;;;;;;16.22;33.33;100183.13;5072016;28;1016;-46
2024/01/14 12:28:05;;;;;;;;;;;;;;;17.60;31.39;100193.97;5077884;28;1046;-49
2024/01/14 12:30:34;;;;;;;;;;;;;;;17.08;31.80;100185.94;5078190;28;1079;-48
2024/01/14 12:33:18;;;;;;;;;;;;;;;16.33;33.41;100184.88;5059823;28;1044;-46
2024/01/14 12:35:44;;;;;;;;;;;;;;;16.52;33.23;100184.25;5059214;28;1971;-46
2024/01/14 12:38:09;;;;;;;;;;;;;;;17.74;31.12;100190.13;5058687;28;861;-47
2024/01/14 12:40:35;;;;;;;;;;;;;;;16.71;32.81;100195.16;5077952;28;1148;-45
2024/01/14 12:43:01;;;;;;;;;;;;;;;16.17;33.43;100193.25;5059198;28;1170;-48